createdAt,value
2019-02-11T00:00:22.311Z,5.40
2019-02-11T00:02:51.543Z,5.30
2019-02-11T00:05:20.839Z,5.30
2019-02-11T00:07:50.005Z,5.30
2019-02-11T00:10:19.233Z,5.30
2019-02-11T00:12:48.435Z,5.30
2019-02-11T00:15:17.716Z,5.20
2019-02-11T00:17:46.997Z,5.20
2019-02-11T00:20:16.260Z,5.30
2019-02-11T00:22:46.142Z,5.30
2019-02-11T00:25:16.320Z,5.30
2019-02-11T00:27:46.522Z,5.30
2019-02-11T00:30:15.767Z,5.30
2019-02-11T00:32:45.066Z,5.30
2019-02-11T00:35:14.338Z,5.30
2019-02-11T00:37:44.616Z,5.30
2019-02-11T00:40:13.903Z,5.30
2019-02-11T00:42:43.308Z,5.30
2019-02-11T00:45:12.524Z,5.30
2019-02-11T00:47:41.881Z,5.30
2019-02-11T00:50:12.054Z,5.30
2019-02-11T00:52:41.348Z,5.30
2019-02-11T00:55:10.540Z,5.30
2019-02-11T00:57:39.762Z,5.30
2019-02-11T01:00:12.133Z,5.30
2019-02-11T01:02:41.362Z,5.30
2019-02-11T01:05:10.567Z,5.30
2019-02-11T01:07:39.854Z,5.30
2019-02-11T01:10:11.003Z,5.30
2019-02-11T01:12:40.231Z,5.20
2019-02-11T01:15:11.593Z,5.20
2019-02-11T01:17:40.894Z,5.20
2019-02-11T01:20:12.295Z,5.20
2019-02-11T01:22:41.601Z,5.20
2019-02-11T01:25:11.702Z,5.20
2019-02-11T01:27:41.086Z,5.20
2019-02-11T01:30:12.408Z,5.10
2019-02-11T01:32:41.592Z,5.10
2019-02-11T01:35:10.998Z,5.10
2019-02-11T01:37:40.275Z,5.10
2019-02-11T01:40:11.028Z,5.10
2019-02-11T01:42:40.416Z,5.10
2019-02-11T01:45:13.566Z,5.00
2019-02-11T01:47:43.806Z,5.00
2019-02-11T01:50:13.846Z,5.00
2019-02-11T01:52:43.137Z,5.00
2019-02-11T01:55:14.121Z,5.00
2019-02-11T01:57:43.323Z,4.90
2019-02-11T02:00:14.316Z,4.90
2019-02-11T02:02:43.602Z,5.00
2019-02-11T02:05:12.797Z,4.90
2019-02-11T02:07:42.035Z,4.90
2019-02-11T02:10:14.603Z,4.90
2019-02-11T02:12:44.250Z,4.90
2019-02-11T02:15:15.126Z,4.90
2019-02-11T02:17:44.353Z,4.90
2019-02-11T02:20:15.176Z,4.90
2019-02-11T02:22:44.533Z,4.80
2019-02-11T02:25:15.440Z,4.80
2019-02-11T02:27:44.706Z,4.80
2019-02-11T02:30:14.830Z,4.80
2019-02-11T02:32:44.129Z,4.80
2019-02-11T02:35:13.442Z,4.70
2019-02-11T02:37:43.712Z,4.70
2019-02-11T02:40:13.006Z,4.70
2019-02-11T02:42:42.393Z,4.70
2019-02-11T02:45:11.720Z,4.70
2019-02-11T02:47:41.064Z,4.70
2019-02-11T02:50:11.010Z,4.70
2019-02-11T02:52:40.543Z,4.70
2019-02-11T02:55:09.971Z,4.70
2019-02-11T02:57:39.292Z,4.70
2019-02-11T03:00:11.544Z,4.70
2019-02-11T03:02:41.063Z,4.60
2019-02-11T03:05:11.235Z,4.60
2019-02-11T03:07:41.214Z,4.60
2019-02-11T03:10:12.637Z,4.60
2019-02-11T03:12:41.867Z,4.60
2019-02-11T03:15:12.766Z,4.60
2019-02-11T03:17:42.139Z,4.60
2019-02-11T03:20:12.086Z,4.60
2019-02-11T03:22:41.476Z,4.70
2019-02-11T03:25:10.942Z,4.70
2019-02-11T03:27:40.296Z,4.70
2019-02-11T03:30:11.287Z,4.80
2019-02-11T03:32:40.887Z,4.80
2019-02-11T03:35:10.206Z,4.80
2019-02-11T03:37:39.425Z,4.80
2019-02-11T03:40:12.349Z,4.80
2019-02-11T03:42:41.719Z,4.80
2019-02-11T03:45:13.698Z,4.80
2019-02-11T03:47:43.138Z,4.80
2019-02-11T03:50:12.908Z,4.80
2019-02-11T03:52:42.290Z,4.80
2019-02-11T03:55:11.658Z,4.80
2019-02-11T03:57:40.954Z,4.80
2019-02-11T04:00:14.805Z,4.80
2019-02-11T04:02:44.116Z,4.80
2019-02-11T04:05:13.475Z,4.70
2019-02-11T04:07:42.967Z,4.70
2019-02-11T04:10:12.378Z,4.70
2019-02-11T04:12:41.713Z,4.70
2019-02-11T04:15:11.109Z,4.70
2019-02-11T04:17:40.556Z,4.70
2019-02-11T04:20:09.852Z,4.70
2019-02-11T04:22:39.304Z,4.70
2019-02-11T04:25:08.755Z,4.70
2019-02-11T04:27:38.235Z,4.70
2019-02-11T04:30:10.192Z,4.70
2019-02-11T04:32:39.970Z,4.70
2019-02-11T04:35:09.252Z,4.60
2019-02-11T04:37:38.625Z,4.60
2019-02-11T04:40:12.528Z,4.60
2019-02-11T04:42:41.834Z,4.60
2019-02-11T04:45:11.547Z,4.50
2019-02-11T04:47:40.756Z,4.50
2019-02-11T04:50:10.880Z,4.50
2019-02-11T04:52:40.542Z,4.40
2019-02-11T04:55:10.413Z,4.40
2019-02-11T04:57:39.722Z,4.40
2019-02-11T05:00:14.557Z,4.40
2019-02-11T05:02:44.013Z,4.40
2019-02-11T05:05:13.420Z,4.40
2019-02-11T05:07:42.801Z,4.40
2019-02-11T05:10:16.141Z,4.40
2019-02-11T05:12:46.141Z,4.40
2019-02-11T05:15:15.442Z,4.50
2019-02-11T05:17:45.795Z,4.50
2019-02-11T05:20:15.045Z,4.40
2019-02-11T05:22:44.460Z,4.40
2019-02-11T05:25:13.764Z,4.50
2019-02-11T05:27:43.872Z,4.40
2019-02-11T05:30:13.178Z,4.40
2019-02-11T05:32:42.504Z,4.40
2019-02-11T05:35:11.902Z,4.50
2019-02-11T05:37:41.287Z,4.40
2019-02-11T05:40:13.744Z,4.40
2019-02-11T05:42:44.898Z,4.50
2019-02-11T05:45:14.400Z,4.50
2019-02-11T05:47:43.711Z,4.40
2019-02-11T05:50:13.704Z,4.50
2019-02-11T05:52:43.082Z,4.40
2019-02-11T05:55:12.414Z,4.40
2019-02-11T05:57:42.738Z,4.40
2019-02-11T06:00:14.623Z,4.40
2019-02-11T06:02:44.061Z,4.40
2019-02-11T06:05:13.417Z,4.40
2019-02-11T06:07:42.901Z,4.40
2019-02-11T06:10:12.475Z,4.40
2019-02-11T06:12:41.895Z,4.40
2019-02-11T06:15:11.201Z,4.40
2019-02-11T06:17:40.966Z,4.40
2019-02-11T06:20:10.977Z,4.40
2019-02-11T06:22:40.316Z,4.40
2019-02-11T06:25:09.755Z,4.40
2019-02-11T06:27:39.342Z,4.40
2019-02-11T06:30:12.564Z,4.40
2019-02-11T06:32:42.057Z,4.40
2019-02-11T06:35:11.446Z,4.40
2019-02-11T06:37:41.925Z,4.30
2019-02-11T06:40:11.785Z,4.30
2019-02-11T06:42:41.171Z,4.30
2019-02-11T06:45:13.443Z,4.30
2019-02-11T06:47:43.398Z,4.30
2019-02-11T06:50:16.486Z,4.30
2019-02-11T06:52:45.982Z,4.30
2019-02-11T06:55:15.368Z,4.40
2019-02-11T06:57:44.953Z,4.40
2019-02-11T07:00:15.991Z,4.40
2019-02-11T07:02:49.987Z,4.40
2019-02-11T07:05:19.464Z,4.40
2019-02-11T07:07:48.867Z,4.40
2019-02-11T07:10:18.443Z,4.40
2019-02-11T07:12:47.758Z,4.40
2019-02-11T07:15:22.210Z,4.40
2019-02-11T07:17:50.157Z,4.40
2019-02-11T07:20:22.890Z,4.40
2019-02-11T07:22:54.031Z,4.40
2019-02-11T07:25:23.538Z,4.30
2019-02-11T07:27:54.015Z,4.30
2019-02-11T07:30:24.742Z,4.30
2019-02-11T07:32:54.193Z,4.30
2019-02-11T07:35:24.411Z,4.30
2019-02-11T07:37:54.086Z,4.30
2019-02-11T07:40:23.608Z,4.40
2019-02-11T07:43:11.239Z,4.40
2019-02-11T07:45:48.373Z,4.40
2019-02-11T07:48:20.884Z,4.40
2019-02-11T07:50:51.989Z,4.50
2019-02-11T07:53:22.923Z,4.60
2019-02-11T07:55:59.890Z,4.60
2019-02-11T07:58:30.425Z,4.60
2019-02-11T08:01:00.645Z,4.70
2019-02-11T08:03:32.032Z,4.70
2019-02-11T08:06:04.072Z,4.70
2019-02-11T08:08:35.009Z,4.80
2019-02-11T08:11:05.609Z,4.90
2019-02-11T08:13:37.050Z,5.40
2019-02-11T08:19:23.587Z,6.80
2019-02-11T08:22:08.432Z,7.40
2019-02-11T08:24:53.646Z,7.90
2019-02-11T08:27:23.144Z,8.40
2019-02-11T08:29:52.658Z,8.80
2019-02-11T08:32:22.983Z,9.30
2019-02-11T08:34:52.481Z,9.60
2019-02-11T08:37:22.049Z,10.00
2019-02-11T08:39:51.704Z,10.30
2019-02-11T08:42:21.392Z,10.60
2019-02-11T08:44:50.796Z,11.00
2019-02-11T08:47:21.221Z,11.30
2019-02-11T08:49:50.810Z,11.70
2019-02-11T08:52:20.247Z,11.90
2019-02-11T08:54:49.831Z,12.00
2019-02-11T08:57:19.327Z,12.10
2019-02-11T08:59:49.888Z,12.10
2019-02-11T09:02:20.257Z,12.00
2019-02-11T09:04:56.003Z,12.10
2019-02-11T09:07:26.163Z,11.90
2019-02-11T09:09:55.697Z,11.40
2019-02-11T09:12:25.282Z,11.00
2019-02-11T09:14:54.775Z,11.10
2019-02-11T09:17:27.646Z,11.50
2019-02-11T09:19:58.805Z,12.00
2019-02-11T09:22:28.434Z,12.30
2019-02-11T09:25:00.820Z,12.00
2019-02-11T09:27:33.028Z,12.20
2019-02-11T09:30:02.790Z,12.90
2019-02-11T09:32:32.241Z,13.10
2019-02-11T09:35:01.784Z,13.40
2019-02-11T09:37:31.619Z,13.30
2019-02-11T09:40:01.228Z,12.90
2019-02-11T09:42:30.892Z,12.30
2019-02-11T09:45:00.265Z,11.80
2019-02-11T09:47:30.347Z,11.50
2019-02-11T09:50:22.138Z,11.60
2019-02-11T09:52:51.425Z,12.00
2019-02-11T09:55:26.935Z,12.30
2019-02-11T09:57:56.416Z,12.10
2019-02-11T10:00:25.785Z,11.70
2019-02-11T10:02:55.019Z,11.40
2019-02-11T10:05:24.503Z,11.10
2019-02-11T10:07:54.561Z,10.90
2019-02-11T10:10:23.916Z,10.60
2019-02-11T10:12:53.149Z,10.30
2019-02-11T10:15:22.602Z,10.00
2019-02-11T10:17:52.857Z,9.90
2019-02-11T10:20:22.427Z,9.70
2019-02-11T10:22:52.464Z,9.50
2019-02-11T10:25:27.991Z,9.30
2019-02-11T10:28:03.057Z,9.30
2019-02-11T10:30:32.440Z,9.70
2019-02-11T10:33:01.786Z,9.80
2019-02-11T10:35:31.221Z,9.80
2019-02-11T10:38:01.073Z,9.90
2019-02-11T10:40:30.448Z,9.90
2019-02-11T10:42:59.738Z,9.90
2019-02-11T10:45:36.466Z,9.70
2019-02-11T10:48:01.776Z,9.60
2019-02-11T10:50:31.085Z,9.50
2019-02-11T10:53:00.370Z,9.20
2019-02-11T10:55:29.692Z,9.10
2019-02-11T10:57:59.160Z,9.10
2019-02-11T11:00:28.652Z,9.30
2019-02-11T11:02:57.868Z,9.40
2019-02-11T11:05:27.163Z,9.40
2019-02-11T11:07:56.619Z,9.40
2019-02-11T11:10:38.437Z,9.40
2019-02-11T11:13:07.645Z,9.40
2019-02-11T11:15:37.036Z,9.30
2019-02-11T11:18:07.038Z,9.30
2019-02-11T11:20:36.305Z,9.20
2019-02-11T11:23:05.542Z,9.20
2019-02-11T11:25:34.781Z,9.20
2019-02-11T11:28:04.074Z,9.20
2019-02-11T11:30:33.395Z,9.20
2019-02-11T11:33:02.598Z,9.10
2019-02-11T11:35:31.956Z,9.20
2019-02-11T11:38:01.193Z,9.70
2019-02-11T11:40:30.474Z,10.00
2019-02-11T11:42:59.799Z,10.10
2019-02-11T11:45:29.167Z,10.00
2019-02-11T11:47:58.537Z,9.80
2019-02-11T11:50:27.833Z,9.70
2019-02-11T11:52:57.142Z,9.60
2019-02-11T11:55:26.539Z,9.40
2019-02-11T11:57:56.636Z,9.30
2019-02-11T12:00:31.746Z,9.20
2019-02-11T12:03:04.103Z,9.10
2019-02-11T12:05:32.883Z,9.10
2019-02-11T12:08:03.180Z,9.10
2019-02-11T12:10:32.555Z,9.10
2019-02-11T12:13:20.439Z,9.10
2019-02-11T12:15:33.177Z,9.00
2019-02-11T12:18:02.725Z,9.00
2019-02-11T12:20:33.765Z,9.00
2019-02-11T12:23:04.124Z,9.00
2019-02-11T12:25:34.464Z,9.00
2019-02-11T12:28:05.251Z,9.20
2019-02-11T12:30:34.700Z,9.70
2019-02-11T12:33:04.070Z,10.30
2019-02-11T12:35:33.428Z,10.50
2019-02-11T12:38:02.730Z,10.40
2019-02-11T12:40:32.149Z,10.40
2019-02-11T12:43:03.132Z,10.30
2019-02-11T12:45:32.432Z,10.40
2019-02-11T12:48:02.696Z,10.60
2019-02-11T12:50:32.163Z,10.70
2019-02-11T12:53:01.425Z,10.60
2019-02-11T12:55:30.738Z,10.60
2019-02-11T12:58:00.390Z,11.20
2019-02-11T13:00:29.769Z,12.30
2019-02-11T13:02:59.041Z,13.30
2019-02-11T13:05:44.315Z,13.60
2019-02-11T13:08:00.252Z,13.80
2019-02-11T13:10:30.803Z,13.80
2019-02-11T13:13:00.100Z,14.20
2019-02-11T13:15:56.556Z,14.10
2019-02-11T13:18:02.235Z,13.90
2019-02-11T13:20:31.716Z,13.60
2019-02-11T13:23:00.994Z,13.10
2019-02-11T13:25:30.417Z,12.70
2019-02-11T13:27:59.714Z,12.30
2019-02-11T13:30:28.926Z,12.00
2019-02-11T13:32:58.482Z,11.70
2019-02-11T13:35:29.869Z,11.70
2019-02-11T13:37:59.090Z,12.10
2019-02-11T13:40:28.319Z,12.40
2019-02-11T13:42:57.802Z,12.50
2019-02-11T13:45:27.150Z,12.60
2019-02-11T13:47:58.535Z,13.10
2019-02-11T13:50:28.705Z,13.50
2019-02-11T13:52:59.236Z,14.00
2019-02-11T13:55:30.769Z,14.50
2019-02-11T13:57:59.403Z,14.80
2019-02-11T14:00:30.384Z,14.70
2019-02-11T14:03:03.808Z,14.70
2019-02-11T14:05:33.827Z,14.70
2019-02-11T14:08:04.720Z,14.80
2019-02-11T14:10:34.216Z,14.60
2019-02-11T14:13:04.355Z,14.50
2019-02-11T14:15:33.654Z,14.40
2019-02-11T14:18:13.964Z,14.00
2019-02-11T14:20:41.688Z,13.60
2019-02-11T14:23:11.031Z,13.20
2019-02-11T14:25:45.902Z,13.00
2019-02-11T14:28:13.361Z,12.70
2019-02-11T14:30:42.877Z,12.50
2019-02-11T14:33:12.407Z,12.10
2019-02-11T14:35:41.859Z,11.70
2019-02-11T14:38:12.302Z,11.40
2019-02-11T14:40:41.691Z,11.20
2019-02-11T14:43:11.213Z,10.90
2019-02-11T14:45:40.608Z,10.70
2019-02-11T14:48:25.954Z,10.50
2019-02-11T14:50:42.077Z,10.40
2019-02-11T14:53:11.524Z,10.30
2019-02-11T14:55:41.022Z,10.20
2019-02-11T14:58:10.679Z,10.10
2019-02-11T15:00:40.076Z,10.00
2019-02-11T15:03:13.227Z,10.00
2019-02-11T15:05:44.783Z,9.90
2019-02-11T15:08:14.125Z,9.90
2019-02-11T15:10:43.476Z,9.90
2019-02-11T15:13:13.451Z,9.80
2019-02-11T15:15:44.474Z,9.80
2019-02-11T15:18:13.914Z,9.80
2019-02-11T15:20:43.337Z,9.70
2019-02-11T15:23:12.741Z,9.60
2019-02-11T15:25:42.163Z,9.50
2019-02-11T15:28:12.695Z,9.50
2019-02-11T15:30:43.643Z,9.40
2019-02-11T15:33:14.713Z,9.30
2019-02-11T15:35:44.325Z,9.20
2019-02-11T15:38:16.105Z,9.10
2019-02-11T15:40:45.497Z,8.90
2019-02-11T15:43:14.848Z,8.80
2019-02-11T15:45:44.359Z,8.70
2019-02-11T15:48:15.320Z,8.60
2019-02-11T15:50:46.762Z,8.50
2019-02-11T15:53:17.445Z,8.40
2019-02-11T15:55:52.381Z,8.30
2019-02-11T15:58:29.571Z,8.30
2019-02-11T16:00:59.065Z,8.20
2019-02-11T16:03:28.544Z,8.10
2019-02-11T16:05:59.927Z,8.00
2019-02-11T16:08:29.132Z,8.00
2019-02-11T16:11:01.456Z,7.90
2019-02-11T16:13:30.597Z,7.80
2019-02-11T16:15:59.885Z,7.80
2019-02-11T16:18:29.364Z,7.80
2019-02-11T16:20:58.858Z,7.70
2019-02-11T16:23:28.532Z,7.60
2019-02-11T16:25:58.013Z,7.60
2019-02-11T16:28:28.361Z,7.60
2019-02-11T16:30:57.804Z,7.50
2019-02-11T16:33:30.212Z,7.40
2019-02-11T16:35:59.512Z,7.30
2019-02-11T16:38:30.478Z,7.30
2019-02-11T16:40:59.877Z,7.20
2019-02-11T16:43:29.187Z,7.20
2019-02-11T16:45:58.486Z,7.10
2019-02-11T16:48:27.816Z,7.00
2019-02-11T16:50:57.187Z,7.00
2019-02-11T16:53:26.686Z,6.90
2019-02-11T16:55:56.274Z,6.90
2019-02-11T16:58:25.675Z,6.90
2019-02-11T17:00:55.073Z,6.80
2019-02-11T17:03:24.381Z,6.80
2019-02-11T17:05:54.094Z,6.70
2019-02-11T17:08:24.520Z,6.70
2019-02-11T17:10:53.995Z,6.60
2019-02-11T17:13:23.293Z,6.60
2019-02-11T17:16:48.079Z,6.50
2019-02-11T17:19:17.573Z,6.50
2019-02-11T17:21:47.026Z,6.40
2019-02-11T17:24:17.044Z,6.40
2019-02-11T17:26:52.321Z,6.30
2019-02-11T17:29:22.646Z,6.30
2019-02-11T17:31:52.315Z,6.30
2019-02-11T17:34:21.778Z,6.20
2019-02-11T17:36:51.331Z,6.20
2019-02-11T17:39:21.207Z,6.10
2019-02-11T17:41:52.380Z,6.10
2019-02-11T17:44:21.968Z,6.10
2019-02-11T17:46:55.234Z,6.00
2019-02-11T17:49:26.415Z,6.00
2019-02-11T17:52:00.969Z,6.00
2019-02-11T17:54:32.442Z,5.90
2019-02-11T18:03:33.892Z,5.80
2019-02-11T18:06:18.827Z,5.70
2019-02-11T18:08:52.702Z,5.70
2019-02-11T18:11:24.553Z,5.60
2019-02-11T18:14:09.449Z,5.60
2019-02-11T18:16:52.578Z,5.60
2019-02-11T18:19:32.979Z,5.60
2019-02-11T18:22:08.994Z,5.50
2019-02-11T18:24:39.301Z,5.50
2019-02-11T18:27:14.459Z,5.40
2019-02-11T18:29:54.309Z,5.40
2019-02-11T18:32:30.067Z,5.30
2019-02-11T18:35:11.933Z,5.30
2019-02-11T18:37:58.721Z,5.20
2019-02-11T18:40:33.426Z,5.20
2019-02-11T18:43:30.182Z,5.10
2019-02-11T18:46:04.536Z,5.10
2019-02-11T18:48:35.884Z,5.10
2019-02-11T18:51:11.865Z,5.10
2019-02-11T18:53:57.605Z,5.00
2019-02-11T18:56:30.426Z,5.00
2019-02-11T18:59:01.728Z,5.00
2019-02-11T19:01:44.495Z,4.90
2019-02-11T19:04:35.075Z,4.90
2019-02-11T19:07:06.543Z,4.80
2019-02-11T19:09:36.399Z,4.80
2019-02-11T19:12:07.959Z,4.80
2019-02-11T19:14:42.711Z,4.80
2019-02-11T19:17:15.270Z,4.70
2019-02-11T19:19:48.021Z,4.70
2019-02-11T19:22:22.346Z,4.70
2019-02-11T19:24:53.152Z,4.70
2019-02-11T19:27:32.867Z,4.70
2019-02-11T19:30:20.787Z,4.70
2019-02-11T19:32:51.158Z,4.60
2019-02-11T19:35:32.269Z,4.60
2019-02-11T19:38:14.734Z,4.50
2019-02-11T19:40:48.099Z,4.50
2019-02-11T19:43:21.671Z,4.50
2019-02-11T19:45:52.613Z,4.50
2019-02-11T19:48:26.105Z,4.50
2019-02-11T19:50:55.789Z,4.50
2019-02-11T19:53:38.296Z,4.50
2019-02-11T19:56:07.998Z,4.50
2019-02-11T19:58:37.830Z,4.40
2019-02-11T20:01:07.705Z,4.40
2019-02-11T20:03:37.907Z,4.40
2019-02-11T20:06:08.110Z,4.40
2019-02-11T20:08:40.756Z,4.40
2019-02-11T20:11:10.470Z,4.40
2019-02-11T20:13:41.511Z,4.30
2019-02-11T20:16:12.574Z,4.30
2019-02-11T20:18:43.576Z,4.30
2019-02-11T20:21:16.538Z,4.30
2019-02-11T20:23:47.742Z,4.30
2019-02-11T20:26:17.405Z,4.20
2019-02-11T20:28:48.681Z,4.20
2019-02-11T20:31:18.401Z,4.20
2019-02-11T20:33:48.142Z,4.10
2019-02-11T20:36:21.864Z,4.10
2019-02-11T20:38:51.669Z,4.10
2019-02-11T20:41:24.549Z,4.10
2019-02-11T20:43:54.290Z,4.10
2019-02-11T20:46:24.168Z,4.10
2019-02-11T20:48:53.895Z,4.00
2019-02-11T20:51:35.651Z,4.00
2019-02-11T20:54:05.351Z,4.00
2019-02-11T20:56:35.069Z,3.90
2019-02-11T20:59:07.582Z,4.00
2019-02-11T21:01:37.733Z,3.90
2019-02-11T21:04:07.398Z,3.90
2019-02-11T21:06:37.121Z,3.90
2019-02-11T21:09:06.897Z,3.90
2019-02-11T21:11:36.575Z,3.80
2019-02-11T21:14:06.299Z,3.80
2019-02-11T21:16:36.053Z,3.80
2019-02-11T21:19:05.672Z,3.70
2019-02-11T21:21:35.337Z,3.70
2019-02-11T21:24:07.368Z,3.70
2019-02-11T21:26:37.078Z,3.60
2019-02-11T21:29:09.284Z,3.70
2019-02-11T21:31:39.067Z,3.60
2019-02-11T21:34:08.829Z,3.60
2019-02-11T21:36:38.559Z,3.60
2019-02-11T21:39:08.295Z,3.60
2019-02-11T21:41:39.615Z,3.50
2019-02-11T21:44:11.485Z,3.50
2019-02-11T21:46:41.110Z,3.50
2019-02-11T21:49:11.190Z,3.50
2019-02-11T21:51:41.053Z,3.40
2019-02-11T21:54:10.825Z,3.40
2019-02-11T21:56:40.363Z,3.40
2019-02-11T21:59:09.857Z,3.40
2019-02-11T22:01:39.325Z,3.40
2019-02-11T22:04:15.205Z,3.40
2019-02-11T22:06:57.092Z,3.40
2019-02-11T22:09:27.511Z,3.30
2019-02-11T22:11:59.539Z,3.30
2019-02-11T22:14:29.095Z,3.30
2019-02-11T22:16:59.556Z,3.30
2019-02-11T22:19:29.648Z,3.30
2019-02-11T22:22:00.438Z,3.20
2019-02-11T22:24:30.678Z,3.30
2019-02-11T22:27:01.728Z,3.20
2019-02-11T22:29:31.559Z,3.20
2019-02-11T22:32:01.115Z,3.20
2019-02-11T22:34:30.684Z,3.20
2019-02-11T22:37:00.782Z,3.10
2019-02-11T22:39:30.300Z,3.10
2019-02-11T22:42:00.308Z,3.10
2019-02-11T22:44:30.498Z,3.10
2019-02-11T22:47:01.419Z,3.10
2019-02-11T22:49:30.902Z,3.10
2019-02-11T22:52:00.651Z,3.10
2019-02-11T22:54:30.518Z,3.10
2019-02-11T23:01:00.236Z,3.10
2019-02-11T23:03:29.601Z,3.00
2019-02-11T23:06:02.179Z,3.00
2019-02-11T23:08:33.309Z,3.00
2019-02-11T23:11:02.903Z,3.00
2019-02-11T23:13:33.800Z,3.00
2019-02-11T23:16:03.430Z,3.00
2019-02-11T23:18:33.658Z,3.00
2019-02-11T23:21:03.300Z,2.90
2019-02-11T23:23:34.814Z,2.90
2019-02-11T23:26:06.687Z,3.00
2019-02-11T23:28:35.963Z,2.90
2019-02-11T23:31:05.392Z,2.90
2019-02-11T23:33:34.773Z,2.90
2019-02-11T23:36:04.294Z,2.90
2019-02-11T23:38:33.766Z,2.90
2019-02-11T23:41:03.920Z,2.90
2019-02-11T23:43:33.451Z,2.90
2019-02-11T23:46:05.428Z,2.90
2019-02-11T23:48:38.952Z,2.90
2019-02-11T23:51:09.342Z,2.90
2019-02-11T23:53:38.866Z,2.90
2019-02-11T23:56:08.973Z,2.90
2019-02-11T23:58:44.328Z,2.90
